Time;durP1;ratioP1;P1;durP2;ratioP2;P2;SDS_P1;SDS_P2;PMS_P1;PMS_P2;Temp;Humidity;BMP_temperature;BMP_pressure;BME280_temperature;BME280_humidity;BME280_pressure;Samples;Min_cycle;Max_cycle;Signal;HPM_P1;HPM_P2
2023/08/02 00:04:50;;;;;;;4.50;2.97;;;17.30;99.90;;;16.21;100.00;99215.63;10427590;27;96974;-81
2023/08/02 00:09:53;;;;;;;4.18;3.50;;;17.30;99.90;;;16.22;100.00;99228.00;10436264;27;96761;-83
2023/08/02 00:14:57;;;;;;;6.88;4.18;;;17.20;99.90;;;16.18;100.00;99221.44;10430830;27;96585;-81
2023/08/02 00:20:01;;;;;;;5.40;3.50;;;17.30;99.90;;;16.17;100.00;99227.84;10426633;27;98275;-82
2023/08/02 00:25:05;;;;;;;5.35;3.60;;;17.20;99.90;;;16.15;100.00;99238.00;10447799;27;96419;-81
2023/08/02 00:30:09;;;;;;;4.32;3.13;;;17.20;99.90;;;16.12;100.00;99249.16;10413950;27;98388;-82
2023/08/02 00:35:13;;;;;;;3.75;3.20;;;17.20;99.90;;;16.10;100.00;99248.56;10413925;27;97397;-82
2023/08/02 00:40:17;;;;;;;5.45;3.58;;;17.10;99.90;;;16.09;100.00;99249.63;10424875;27;96659;-83
2023/08/02 00:45:20;;;;;;;3.95;3.10;;;17.10;99.90;;;16.06;100.00;99252.75;10425587;27;96674;-83
2023/08/02 00:50:27;;;;;;;4.30;3.00;;;17.10;99.90;;;16.08;100.00;99257.91;10424356;27;96754;-83
2023/08/02 00:55:33;;;;;;;6.43;3.90;;;17.10;99.90;;;16.07;100.00;99257.06;10400885;28;98174;-83
2023/08/02 01:00:37;;;;;;;5.80;3.65;;;17.10;99.90;;;16.05;100.00;99256.47;10424618;27;96829;-82
2023/08/02 01:05:58;;;;;;;4.60;3.42;;;17.10;99.90;;;16.03;100.00;99245.16;10419176;27;97016;-81
2023/08/02 01:11:53;;;;;;;4.35;3.55;;;17.10;99.90;;;16.00;100.00;99245.59;10448023;27;96555;-82
2023/08/02 01:16:58;;;;;;;5.07;3.40;;;17.00;99.90;;;15.99;100.00;99241.28;10345978;28;96979;-81
2023/08/02 01:22:01;;;;;;;6.97;3.45;;;17.00;99.90;;;15.95;100.00;99240.94;10414278;27;97600;-82
2023/08/02 01:27:13;;;;;;;5.18;3.55;;;17.00;99.90;;;15.96;100.00;99249.81;10408975;27;97720;-82
2023/08/02 01:32:21;;;;;;;5.90;3.78;;;17.00;99.90;;;15.95;100.00;99240.09;10437545;27;96854;-82
2023/08/02 01:37:25;;;;;;;6.90;4.25;;;17.00;99.90;;;15.94;100.00;99258.03;10431261;27;96650;-82
2023/08/02 01:42:30;;;;;;;5.60;4.72;;;17.00;99.90;;;15.93;100.00;99255.59;10432142;27;96747;-82
2023/08/02 01:47:33;;;;;;;6.45;4.32;;;17.00;99.90;;;15.89;100.00;99254.41;10425775;27;97347;-82
2023/08/02 01:52:37;;;;;;;5.40;4.50;;;17.00;99.90;;;15.91;100.00;99269.22;10402597;27;96570;-82
2023/08/02 01:57:40;;;;;;;5.22;4.63;;;16.90;99.90;;;15.94;100.00;99260.72;10420673;27;96609;-81
2023/08/02 02:02:44;;;;;;;5.78;5.15;;;17.00;99.90;;;15.95;100.00;99267.75;10428870;27;97358;-82
2023/08/02 02:07:48;;;;;;;6.25;4.55;;;17.00;99.90;;;15.96;100.00;99266.69;10424641;27;98124;-82
2023/08/02 02:12:51;;;;;;;5.40;4.03;;;17.00;99.90;;;15.96;100.00;99276.59;10423184;27;98208;-82
2023/08/02 02:17:55;;;;;;;5.65;4.20;;;17.00;99.90;;;15.97;100.00;99280.91;10409475;27;96990;-81
2023/08/02 02:22:59;;;;;;;4.55;3.88;;;17.00;99.90;;;15.96;100.00;99271.25;10404051;28;96815;-81
2023/08/02 02:28:03;;;;;;;5.35;3.95;;;17.00;99.90;;;15.92;100.00;99275.41;10420933;27;96583;-82
2023/08/02 02:33:06;;;;;;;5.70;3.85;;;17.00;99.90;;;15.90;100.00;99282.84;10435217;27;98539;-82
2023/08/02 02:38:10;;;;;;;4.95;3.80;;;16.90;99.90;;;15.83;100.00;99282.09;10422525;27;96657;-82
2023/08/02 02:43:13;;;;;;;4.63;3.38;;;17.00;99.90;;;15.83;100.00;99284.78;10424372;27;96736;-82
2023/08/02 02:48:17;;;;;;;5.43;3.40;;;16.90;99.90;;;15.83;100.00;99298.16;10416169;27;96745;-82
2023/08/02 02:53:23;;;;;;;5.85;3.65;;;16.90;99.90;;;15.80;100.00;99291.41;10420104;27;98211;-81
2023/08/02 02:58:26;;;;;;;5.20;3.08;;;16.90;99.90;;;15.82;100.00;99307.25;10413203;27;97000;-82
2023/08/02 03:03:30;;;;;;;6.30;3.53;;;16.90;99.90;;;15.83;100.00;99311.56;10438718;27;97565;-82
2023/08/02 03:08:33;;;;;;;5.70;3.35;;;16.90;99.90;;;15.88;100.00;99314.38;10449182;27;96526;-82
2023/08/02 03:13:37;;;;;;;6.18;3.42;;;16.90;99.90;;;15.90;100.00;99320.38;10423464;27;96542;-82
2023/08/02 03:18:40;;;;;;;4.15;3.08;;;17.00;99.90;;;15.96;100.00;99324.81;10394164;27;96645;-82
2023/08/02 03:23:46;;;;;;;5.57;3.05;;;17.00;99.90;;;16.01;100.00;99336.50;10432764;27;97538;-82
2023/08/02 03:28:50;;;;;;;4.80;2.88;;;17.10;99.90;;;16.05;100.00;99339.53;10391892;27;96908;-83
2023/08/02 03:33:53;;;;;;;4.07;2.90;;;17.20;99.90;;;16.16;100.00;99359.41;10407387;27;97461;-83
2023/08/02 03:38:57;;;;;;;4.18;3.22;;;17.20;99.90;;;16.20;100.00;99353.41;10450129;27;96637;-82
2023/08/02 03:44:01;;;;;;;5.03;3.28;;;17.30;99.90;;;16.27;100.00;99354.13;10397768;27;96609;-82
2023/08/02 03:49:05;;;;;;;3.97;3.35;;;17.40;99.90;;;16.37;100.00;99358.13;10414842;27;96703;-82
2023/08/02 03:54:09;;;;;;;4.13;3.30;;;17.50;99.90;;;16.42;100.00;99364.44;10433992;27;96742;-85
2023/08/02 03:59:13;;;;;;;6.95;3.75;;;17.50;99.90;;;16.47;100.00;99359.22;10409204;27;96760;-82
2023/08/02 04:04:16;;;;;;;4.05;3.65;;;17.60;99.90;;;16.52;100.00;99355.88;10409451;27;97569;-82
2023/08/02 04:09:20;;;;;;;3.22;2.92;;;17.60;99.90;;;16.60;100.00;99359.03;10410607;27;98372;-82
2023/08/02 04:14:24;;;;;;;4.05;3.20;;;17.70;99.90;;;16.71;100.00;99357.47;10415435;27;98599;-82
2023/08/02 04:19:27;;;;;;;5.38;3.42;;;17.80;99.90;;;16.89;100.00;99363.84;10436385;27;98336;-81
2023/08/02 04:24:32;;;;;;;4.53;3.38;;;18.00;99.90;;;17.03;100.00;99358.06;10447503;27;97615;-81
2023/08/02 04:29:36;;;;;;;3.63;3.22;;;18.10;99.90;;;17.12;100.00;99358.53;10405950;27;97902;-84
2023/08/02 04:34:39;;;;;;;3.60;3.25;;;18.20;99.90;;;17.19;100.00;99356.56;10447975;27;96659;-81
2023/08/02 04:39:43;;;;;;;5.90;4.35;;;18.30;99.90;;;17.19;100.00;99361.91;10420206;27;96657;-81
2023/08/02 04:44:47;;;;;;;7.05;4.05;;;18.30;99.90;;;17.18;100.00;99364.84;10421605;27;96566;-81
2023/08/02 04:49:50;;;;;;;7.22;4.32;;;18.20;99.90;;;17.19;100.00;99347.69;10410127;27;97217;-80
2023/08/02 04:54:54;;;;;;;4.63;4.13;;;18.20;99.90;;;17.19;100.00;99358.41;10412591;27;97172;-81
2023/08/02 04:59:58;;;;;;;6.97;5.32;;;18.20;99.90;;;17.21;100.00;99353.63;10391953;27;98446;-81
2023/08/02 05:05:03;;;;;;;6.82;4.78;;;18.30;99.90;;;17.24;100.00;99359.38;10411700;27;96668;-81
2023/08/02 05:10:07;;;;;;;5.65;4.68;;;18.30;99.90;;;17.25;100.00;99354.81;10425540;27;97571;-80
2023/08/02 05:15:14;;;;;;;6.70;5.05;;;18.30;99.90;;;17.29;100.00;99358.69;10415425;27;97286;-80
2023/08/02 05:20:17;;;;;;;5.25;4.70;;;18.30;99.90;;;17.33;100.00;99363.34;10436477;27;97329;-79
2023/08/02 05:25:21;;;;;;;6.72;5.20;;;18.40;99.90;;;17.39;100.00;99357.06;10406104;27;98920;-80
2023/08/02 05:30:28;;;;;;;5.07;4.57;;;18.40;99.90;;;17.48;100.00;99360.19;10406830;27;96507;-80
2023/08/02 05:35:33;;;;;;;5.13;4.63;;;18.50;99.90;;;17.57;100.00;99357.97;10406617;28;96648;-80
2023/08/02 05:40:36;;;;;;;5.78;5.28;;;18.60;99.90;;;17.59;100.00;99340.59;10429677;27;97342;-80
2023/08/02 05:45:40;;;;;;;6.18;5.68;;;18.70;99.90;;;17.72;100.00;99361.06;10442348;27;96643;-80
2023/08/02 05:50:43;;;;;;;6.28;5.68;;;18.80;99.90;;;17.79;100.00;99366.28;10408685;27;96648;-80
2023/08/02 05:55:47;;;;;;;7.43;6.68;;;18.80;99.90;;;17.83;100.00;99362.91;10436009;27;97476;-80
2023/08/02 06:00:50;;;;;;;6.72;6.03;;;18.90;99.90;;;17.88;100.00;99371.09;10426834;27;96791;-80
2023/08/02 06:05:54;;;;;;;7.03;5.65;;;18.90;99.90;;;18.02;100.00;99376.22;10426106;27;97664;-81
2023/08/02 06:11:00;;;;;;;7.43;5.50;;;19.10;99.90;;;18.14;100.00;99387.75;10441824;27;98543;-81
2023/08/02 06:16:04;;;;;;;7.43;6.70;;;19.20;99.90;;;18.22;100.00;99387.38;10422003;27;97519;-80
2023/08/02 06:21:08;;;;;;;8.55;6.82;;;19.30;99.90;;;18.27;100.00;99389.38;10411897;27;96726;-81
2023/08/02 06:26:11;;;;;;;7.88;6.45;;;19.30;99.90;;;18.39;100.00;99395.53;10434028;27;96725;-79
2023/08/02 06:31:15;;;;;;;6.68;6.07;;;19.40;99.90;;;18.49;100.00;99403.00;10447603;27;98421;-80
2023/08/02 06:36:19;;;;;;;7.03;6.13;;;19.50;99.90;;;18.59;100.00;99403.19;10425573;27;98775;-79
2023/08/02 06:41:23;;;;;;;5.68;5.18;;;19.60;99.90;;;18.73;100.00;99411.84;10428462;27;96655;-80
2023/08/02 06:46:26;;;;;;;6.45;4.53;;;19.80;99.90;;;18.87;98.21;99411.28;10432114;27;98202;-84
2023/08/02 06:51:32;;;;;;;5.43;4.93;;;19.90;99.90;;;19.01;97.72;99411.00;10422745;27;98201;-80
2023/08/02 06:56:35;;;;;;;5.72;4.80;;;20.10;99.90;;;19.09;96.70;99408.75;10424964;27;97269;-80
2023/08/02 07:01:39;;;;;;;4.35;3.95;;;20.20;99.90;;;19.19;94.10;99408.09;10423328;27;96554;-80
2023/08/02 07:06:43;;;;;;;5.70;4.20;;;20.30;99.90;;;19.30;92.99;99407.19;10449699;27;96558;-80
2023/08/02 07:11:46;;;;;;;3.80;3.40;;;20.40;99.90;;;19.47;93.15;99405.31;10418411;27;96763;-80
2023/08/02 07:16:50;;;;;;;4.30;3.83;;;20.50;99.90;;;19.63;90.26;99414.50;10401092;27;96973;-80
2023/08/02 07:21:54;;;;;;;5.78;3.53;;;20.70;99.90;;;19.77;89.51;99410.41;10423447;27;96706;-80
2023/08/02 07:26:57;;;;;;;4.57;3.25;;;20.80;99.90;;;19.87;87.64;99414.31;10428423;27;98308;-80
2023/08/02 07:32:01;;;;;;;5.45;2.90;;;21.00;99.90;;;19.92;83.65;99419.78;10413297;27;97754;-81
2023/08/02 07:37:05;;;;;;;3.33;2.42;;;21.00;99.90;;;19.95;83.19;99416.59;10429186;27;96643;-81
2023/08/02 07:42:09;;;;;;;3.03;2.45;;;21.00;99.90;;;20.01;82.43;99416.41;10411656;27;96502;-82
2023/08/02 07:47:13;;;;;;;3.30;2.50;;;21.10;99.90;;;20.18;82.44;99416.38;10406997;27;97425;-81
2023/08/02 07:52:16;;;;;;;6.45;2.50;;;21.20;99.90;;;20.30;81.18;99410.88;10411831;27;97123;-81
2023/08/02 07:57:30;;;;;;;4.43;2.50;;;21.40;99.90;;;20.51;80.52;99412.78;10403034;27;98081;-81
2023/08/02 08:02:34;;;;;;;3.20;1.92;;;21.60;99.90;;;20.69;77.23;99421.59;10417642;27;96629;-81
2023/08/02 08:07:38;;;;;;;4.85;2.03;;;21.70;99.90;;;20.85;76.86;99410.72;10427281;27;96630;-81
2023/08/02 08:12:41;;;;;;;2.50;1.92;;;21.90;99.90;;;20.97;75.06;99404.34;10426700;27;98123;-84
2023/08/02 08:17:45;;;;;;;1.73;1.40;;;22.10;99.90;;;21.18;75.18;99400.78;10417987;27;96654;-84
2023/08/02 08:22:49;;;;;;;2.42;1.20;;;22.20;99.90;;;21.43;72.48;99402.91;10423722;27;96463;-84
2023/08/02 08:27:52;;;;;;;2.25;1.23;;;22.50;99.90;;;21.69;68.54;99405.81;10430190;27;98155;-84
2023/08/02 08:32:56;;;;;;;5.03;1.27;;;22.70;99.10;;;21.86;66.90;99395.66;10415911;27;98428;-85
2023/08/02 08:37:59;;;;;;;2.92;1.08;;;22.90;98.00;;;22.05;67.12;99401.44;10420118;28;96432;-84
2023/08/02 08:43:03;;;;;;;2.60;0.90;;;23.10;97.60;;;22.17;61.71;99400.16;10408304;27;96619;-84
2023/08/02 08:48:08;;;;;;;3.10;1.30;;;23.20;95.80;;;22.34;62.46;99404.59;10416190;27;97034;-83
2023/08/02 08:53:21;;;;;;;1.30;0.80;;;23.40;95.60;;;22.42;56.97;99402.16;10445845;27;96706;-84
2023/08/02 08:58:24;;;;;;;3.67;0.88;;;23.50;93.00;;;22.48;54.67;99399.47;10418947;27;97389;-84
2023/08/02 09:03:28;;;;;;;1.60;0.80;;;23.60;91.10;;;22.60;60.55;99386.53;10427931;27;96523;-85
2023/08/02 09:08:44;;;;;;;1.88;1.08;;;23.70;92.60;;;22.88;60.78;99388.00;10389810;27;97264;-84
2023/08/02 09:13:47;;;;;;;1.50;1.00;;;24.00;92.80;;;23.12;57.22;99389.09;10395158;28;96657;-84
2023/08/02 09:18:52;;;;;;;1.10;0.80;;;24.20;91.60;;;23.17;54.26;99382.88;10421669;27;97779;-82
2023/08/02 09:24:00;;;;;;;1.30;0.82;;;24.30;90.00;;;23.21;54.92;99390.22;10425613;27;98308;-84
2023/08/02 09:29:07;;;;;;;2.70;0.90;;;24.30;89.50;;;23.20;54.92;99396.69;10406854;28;96653;-85
2023/08/02 09:34:11;;;;;;;1.95;1.10;;;24.30;88.40;;;23.27;55.84;99387.47;10418552;27;97780;-85
2023/08/02 09:39:21;;;;;;;2.58;1.10;;;24.30;89.30;;;23.28;55.40;99389.94;10430145;27;97074;-87
2023/08/02 09:44:37;;;;;;;2.58;1.30;;;24.30;88.90;;;23.31;56.14;99389.38;10387801;28;96589;-86
2023/08/02 09:49:42;;;;;;;2.45;1.20;;;24.30;89.10;;;23.31;57.54;99383.16;10419855;27;98368;-85
2023/08/02 09:54:53;;;;;;;;;;;24.30;90.10;;;23.41;55.84;99402.94;10411363;27;96599;-85
2023/08/02 10:00:06;;;;;;;2.75;1.02;;;24.50;87.90;;;23.58;58.04;99405.38;10412936;27;96598;-86
2023/08/02 10:05:38;;;;;;;1.92;0.90;;;24.60;90.30;;;23.82;54.18;99407.56;10428554;27;96667;-84
2023/08/02 10:10:45;;;;;;;1.50;0.90;;;24.90;87.10;;;23.99;53.21;99394.47;10439740;27;96951;-86
2023/08/02 10:15:53;;;;;;;3.22;1.23;;;25.10;85.90;;;24.15;51.46;99387.91;10417217;27;96584;-86
2023/08/02 10:21:11;;;;;;;1.52;0.88;;;25.30;83.70;;;24.32;52.39;99390.31;10407668;27;96829;-84
2023/08/02 10:26:20;;;;;;;1.55;0.98;;;25.40;83.60;;;24.50;52.64;99381.56;10392172;28;96652;-87
2023/08/02 10:31:35;;;;;;;2.08;0.90;;;25.60;83.90;;;24.64;50.50;99379.03;10419624;27;96608;-87
2023/08/02 10:36:57;;;;;;;3.63;1.10;;;25.80;82.60;;;24.78;50.37;99373.81;10424023;27;96596;-87
2023/08/02 10:42:02;;;;;;;1.88;1.30;;;25.90;80.40;;;24.82;50.00;99372.94;10407722;27;98655;-86
2023/08/02 10:47:25;;;;;;;1.88;1.00;;;26.00;80.30;;;24.88;49.70;99367.47;10403282;27;97859;-85
2023/08/02 10:53:44;;;;;;;1.90;1.10;;;26.00;79.40;;;25.03;50.36;99345.66;10419448;27;96698;-85
2023/08/02 10:59:25;;;;;;;1.45;1.00;;;26.20;79.30;;;25.05;50.35;99349.72;10356963;27;97121;-88
2023/08/02 11:04:47;;;;;;;1.25;0.85;;;26.30;79.30;;;25.14;48.53;99358.09;10433521;27;97126;-87
2023/08/02 11:10:56;;;;;;;;;;;;;;;;;;;;;
2023/08/02 11:17:32;;;;;;;1.97;1.10;;;26.40;77.80;;;25.19;47.81;99325.44;10426861;27;96631;-86
2023/08/02 11:23:33;;;;;;;1.48;1.00;;;26.40;75.50;;;25.13;45.96;99321.13;10401051;27;96448;-86
2023/08/02 11:29:46;;;;;;;2.55;0.95;;;26.30;73.20;;;25.15;47.24;99304.53;10460199;27;97722;-88
2023/08/02 11:35:37;;;;;;;3.17;1.13;;;26.30;73.70;;;25.18;47.65;99299.31;10412021;28;96560;-86
2023/08/02 11:41:28;;;;;;;2.40;1.00;;;26.30;74.80;;;25.32;47.17;99288.59;10435759;27;96673;-86
2023/08/02 11:46:36;;;;;;;2.22;1.08;;;26.40;72.80;;;25.42;47.86;99274.06;10408403;28;98414;-84
2023/08/02 11:51:44;;;;;;;1.55;0.90;;;26.50;74.50;;;25.34;46.44;99276.34;10427614;28;98198;-87
2023/08/02 11:57:07;;;;;;;1.77;0.80;;;26.50;73.00;;;25.42;45.17;99288.50;10410738;28;96557;-85
2023/08/02 12:02:34;;;;;;;3.58;0.98;;;26.60;71.50;;;25.58;45.00;99281.78;10389174;28;96735;-85
2023/08/02 12:07:41;;;;;;;1.23;0.70;;;26.80;70.90;;;25.71;44.57;99280.28;10386321;28;97856;-84
2023/08/02 12:12:46;;;;;;;3.33;1.30;;;27.00;70.50;;;25.85;44.30;99275.00;10371937;28;98337;-84
2023/08/02 12:18:12;;;;;;;1.60;0.90;;;27.10;69.50;;;26.04;41.55;99269.59;10392217;28;96591;-84
2023/08/02 12:23:46;;;;;;;1.30;0.70;;;27.30;66.50;;;26.29;40.51;99277.41;10413544;28;96921;-85
2023/08/02 12:28:57;;;;;;;1.25;0.90;;;27.60;65.20;;;26.58;40.98;99277.28;10417110;28;96484;-85
2023/08/02 12:34:15;;;;;;;1.52;0.90;;;27.80;64.90;;;26.81;40.29;99267.41;10406413;28;98537;-84
2023/08/02 12:39:34;;;;;;;1.25;0.88;;;27.90;64.30;;;26.94;41.22;99268.56;10384384;28;97366;-85
2023/08/02 12:44:45;;;;;;;1.50;0.90;;;28.10;64.60;;;26.91;39.27;99269.13;10402880;28;97149;-86
2023/08/02 12:50:27;;;;;;;1.83;0.80;;;28.10;63.30;;;27.03;38.35;99261.28;10363763;28;97670;-83
2023/08/02 12:55:58;;;;;;;3.78;1.15;;;28.30;62.20;;;26.94;39.30;99255.72;10370033;28;97463;-83
2023/08/02 13:01:11;;;;;;;1.33;0.82;;;28.30;62.00;;;27.14;38.93;99273.69;10406258;28;97501;-86
2023/08/02 13:06:25;;;;;;;1.70;0.82;;;28.50;61.60;;;27.17;39.33;99261.38;10392612;28;96734;-84
2023/08/02 13:11:35;;;;;;;1.98;1.00;;;28.60;61.30;;;27.50;38.67;99258.56;10412985;28;97619;-85
2023/08/02 13:16:59;;;;;;;3.00;1.08;;;29.10;60.50;;;27.84;37.72;99248.09;10378353;28;98283;-84
2023/08/02 13:22:49;;;;;;;1.45;0.68;;;29.70;59.10;;;28.14;35.71;99262.22;10384690;28;97779;-83
2023/08/02 13:28:06;;;;;;;1.50;1.05;;;30.00;57.20;;;28.26;34.42;99267.94;10368535;28;97938;-85
2023/08/02 13:34:02;;;;;;;2.58;0.80;;;29.90;55.80;;;28.48;34.33;99239.88;10370004;28;96628;-86
2023/08/02 13:39:21;;;;;;;1.27;0.80;;;30.00;56.20;;;28.72;35.90;99229.44;10397418;28;96788;-85
2023/08/02 13:51:08;;;;;;;2.72;0.80;;;30.00;55.60;;;29.05;34.50;99219.06;10420100;28;96640;-83
2023/08/02 13:56:24;;;;;;;2.00;1.00;;;30.00;55.80;;;29.02;34.98;99216.94;10416044;28;97272;-83
2023/08/02 14:01:30;;;;;;;1.40;0.70;;;30.10;55.90;;;28.94;34.35;99206.78;10393699;28;96670;-85
2023/08/02 14:07:04;;;;;;;3.63;1.15;;;30.00;55.20;;;28.48;35.76;99202.41;10376010;28;96807;-83
2023/08/02 14:13:04;;;;;;;2.50;0.90;;;29.70;55.70;;;28.87;36.04;99197.38;10399143;28;97007;-83
2023/08/02 14:18:39;;;;;;;1.83;0.90;;;29.90;57.30;;;29.07;36.01;99185.91;10348978;28;97024;-84
2023/08/02 14:23:43;;;;;;;1.73;0.80;;;30.40;56.40;;;29.08;36.25;99167.56;10376404;28;96487;-83
2023/08/02 14:28:46;;;;;;;1.17;0.75;;;30.50;56.70;;;29.38;35.58;99182.34;10363235;28;98525;-83
2023/08/02 14:33:50;;;;;;;2.58;0.88;;;30.90;56.00;;;29.22;34.52;99173.75;10393726;28;96850;-83
2023/08/02 14:38:53;;;;;;;0.98;0.70;;;31.10;54.70;;;29.63;34.79;99147.97;10385530;28;96581;-84
2023/08/02 14:43:58;;;;;;;0.70;0.60;;;31.40;54.40;;;29.73;34.07;99153.16;10398243;28;96628;-83
2023/08/02 14:49:02;;;;;;;1.50;0.90;;;31.60;53.50;;;29.56;34.81;99151.19;10381981;27;96635;-83
2023/08/02 14:54:05;;;;;;;1.67;1.10;;;31.70;53.50;;;29.40;35.21;99156.28;10388361;28;96757;-83
2023/08/02 14:59:16;;;;;;;1.25;0.90;;;31.70;53.50;;;29.64;35.72;99155.88;10387058;28;98741;-83
2023/08/02 15:04:20;;;;;;;1.35;0.70;;;31.80;54.20;;;29.96;34.49;99162.84;10362179;28;96634;-84
2023/08/02 15:09:24;;;;;;;1.67;1.17;;;32.20;53.50;;;30.64;34.88;99154.91;10411760;28;96613;-83
2023/08/02 15:14:27;;;;;;;1.92;1.08;;;32.70;53.30;;;31.25;34.01;99146.50;10417072;28;96564;-83
2023/08/02 15:19:31;;;;;;;2.42;1.00;;;33.20;52.80;;;31.67;31.76;99133.69;10412072;28;96600;-83
2023/08/02 15:24:35;;;;;;;2.05;0.90;;;33.60;51.70;;;31.70;32.36;99127.53;10417721;28;96585;-83
2023/08/02 15:29:38;;;;;;;1.27;0.90;;;33.70;51.40;;;31.66;31.89;99127.38;10382049;28;98129;-83
2023/08/02 15:34:42;;;;;;;8.23;7.38;;;33.60;51.00;;;31.52;33.00;99112.31;10361366;28;96702;-83
2023/08/02 15:39:45;;;;;;;4.18;2.22;;;33.20;51.30;;;31.69;32.45;99104.75;10370572;28;96648;-83
2023/08/02 15:44:52;;;;;;;3.60;1.65;;;33.40;51.70;;;31.62;32.36;99100.94;10395502;28;97401;-82
2023/08/02 15:49:57;;;;;;;1.98;0.82;;;33.20;51.50;;;31.49;31.92;99102.81;10375683;28;96647;-83
2023/08/02 15:55:00;;;;;;;1.10;0.82;;;33.10;50.90;;;31.29;32.45;99093.38;10411365;28;97256;-82
2023/08/02 16:00:05;;;;;;;1.52;0.82;;;32.90;51.00;;;30.57;32.54;99105.25;10375563;28;98046;-84
2023/08/02 16:05:09;;;;;;;1.27;0.70;;;32.20;50.90;;;29.75;33.87;99107.13;10377535;28;97240;-83
2023/08/02 16:10:12;;;;;;;0.95;0.70;;;31.40;52.30;;;29.03;35.34;99113.84;10365042;28;96593;-83
2023/08/02 16:15:16;;;;;;;3.00;0.82;;;30.60;53.20;;;28.64;36.59;99112.66;10368736;28;97987;-82
2023/08/02 16:20:20;;;;;;;2.80;0.80;;;30.10;54.00;;;28.81;36.65;99103.75;10395816;28;96824;-82
2023/08/02 16:25:26;;;;;;;1.98;1.15;;;30.00;54.50;;;28.55;36.93;99103.63;10389596;28;98497;-83
2023/08/02 16:30:29;;;;;;;2.03;0.80;;;29.90;55.00;;;28.29;38.04;99097.94;10390831;28;96713;-90
2023/08/02 16:35:33;;;;;;;1.92;0.80;;;29.60;55.30;;;27.95;38.27;99099.34;10399809;28;96647;-83
2023/08/02 16:40:37;;;;;;;1.45;0.93;;;29.20;55.90;;;27.98;37.71;99104.16;10413744;28;97314;-87
2023/08/02 16:45:40;;;;;;;1.40;0.88;;;29.10;56.20;;;28.20;37.32;99099.84;10401877;28;97431;-83
2023/08/02 16:50:45;;;;;;;1.77;1.05;;;29.40;55.30;;;28.38;37.78;99096.13;10375140;28;97156;-82
2023/08/02 16:55:48;;;;;;;1.30;0.90;;;29.60;55.60;;;28.30;37.27;99101.47;10398065;28;97334;-82
2023/08/02 17:00:52;;;;;;;2.15;0.90;;;29.50;55.10;;;27.88;37.75;99096.19;10376670;28;98828;-82
2023/08/02 17:05:56;;;;;;;1.40;0.93;;;29.10;55.30;;;27.41;38.84;99098.34;10390993;28;97512;-82
2023/08/02 17:11:00;;;;;;;4.97;1.10;;;28.60;56.00;;;26.94;39.11;99108.53;10388197;28;96682;-81
2023/08/02 17:16:05;;;;;;;1.48;0.98;;;28.10;56.80;;;26.51;40.40;99101.69;10394571;28;96521;-94
2023/08/02 17:21:09;;;;;;;2.20;0.90;;;27.60;57.60;;;26.17;41.47;99097.34;10348907;28;98549;-81
2023/08/02 17:26:12;;;;;;;2.10;0.80;;;27.20;58.40;;;25.88;41.74;99094.78;10388545;28;98525;-81
2023/08/02 17:31:17;;;;;;;2.38;1.02;;;26.90;59.10;;;25.66;42.99;99094.53;10395645;28;98024;-80
2023/08/02 17:36:21;;;;;;;1.88;0.93;;;26.70;59.70;;;25.46;43.04;99082.84;10376661;28;100186;-80
2023/08/02 17:41:26;;;;;;;2.55;1.08;;;26.50;60.60;;;25.29;44.27;99088.78;10374256;28;96628;-78
2023/08/02 17:46:29;;;;;;;2.78;1.60;;;26.30;61.00;;;25.13;44.23;99090.09;10379965;27;96765;-81
2023/08/02 17:51:34;;;;;;;2.80;1.23;;;26.10;61.40;;;24.97;44.90;99080.44;10384414;28;98560;-83
2023/08/02 17:56:38;;;;;;;2.42;1.17;;;25.90;62.20;;;24.81;45.28;99083.31;10388681;28;96664;-80
2023/08/02 18:01:45;;;;;;;3.08;1.17;;;25.80;62.60;;;24.67;45.89;99087.84;10391675;28;98336;-81
2023/08/02 18:06:51;;;;;;;2.55;1.70;;;25.70;63.30;;;24.55;47.10;99090.13;10388472;28;96654;-81
2023/08/02 18:11:55;;;;;;;2.72;1.50;;;25.50;63.90;;;24.42;47.33;99093.53;10389531;28;97765;-82
2023/08/02 18:16:59;;;;;;;2.72;1.70;;;25.40;64.10;;;24.30;47.53;99105.53;10408396;28;97537;-82
2023/08/02 18:22:03;;;;;;;4.18;1.83;;;25.30;65.20;;;24.15;48.75;99097.50;10390725;28;96522;-81
2023/08/02 18:27:07;;;;;;;3.35;2.03;;;25.20;65.80;;;23.97;49.21;99095.47;10383186;28;96626;-80
2023/08/02 18:32:10;;;;;;;4.22;2.10;;;25.00;66.00;;;23.81;49.54;99094.78;10386055;28;96793;-80
2023/08/02 18:37:14;;;;;;;2.85;1.63;;;24.80;66.60;;;23.65;49.62;99095.97;10400183;27;96569;-93
2023/08/02 18:42:17;;;;;;;3.78;1.67;;;24.60;67.40;;;23.47;50.38;99100.09;10372183;28;98369;-81
2023/08/02 18:47:24;;;;;;;3.20;1.70;;;24.40;67.70;;;23.30;50.70;99091.50;10384743;28;98969;-80
2023/08/02 18:52:32;;;;;;;3.15;1.67;;;24.30;68.10;;;23.10;51.99;99095.91;10392127;28;97426;-80
2023/08/02 18:57:36;;;;;;;5.50;1.70;;;24.10;68.60;;;22.95;51.88;99079.72;10376090;28;96770;-80
2023/08/02 19:02:40;;;;;;;4.07;1.65;;;23.90;68.80;;;22.83;52.96;99074.56;10404061;28;97474;-80
2023/08/02 19:07:44;;;;;;;4.07;1.98;;;23.80;69.60;;;22.64;53.40;99087.06;10384999;28;96612;-79
2023/08/02 19:12:48;;;;;;;3.10;1.70;;;23.70;70.00;;;22.48;53.79;99109.81;10391660;28;96876;-79
2023/08/02 19:17:52;;;;;;;2.47;1.45;;;23.50;70.60;;;22.37;53.30;99111.72;10385644;28;99192;-80
2023/08/02 19:22:56;;;;;;;2.53;1.58;;;23.40;70.00;;;22.33;53.21;99119.59;10374970;28;97064;-80
2023/08/02 19:28:01;;;;;;;3.67;1.30;;;23.30;70.30;;;22.31;53.24;99129.03;10378491;28;96643;-80
2023/08/02 19:33:14;;;;;;;3.35;1.48;;;23.30;70.20;;;22.27;53.66;99128.00;10393046;28;96642;-79
2023/08/02 19:38:23;;;;;;;4.18;1.33;;;23.20;70.30;;;22.20;53.61;99122.03;10391183;28;99075;-79
2023/08/02 19:43:27;;;;;;;4.73;2.03;;;23.20;70.50;;;22.14;54.28;99115.81;10407411;28;98648;-79
2023/08/02 19:48:37;;;;;;;4.88;2.28;;;23.20;71.20;;;22.02;55.22;99121.44;10395004;28;96665;-85
2023/08/02 19:53:44;;;;;;;3.80;2.70;;;23.00;72.00;;;21.91;55.68;99127.91;10377884;28;97383;-86
2023/08/02 19:58:49;;;;;;;3.38;2.30;;;22.90;72.90;;;21.77;57.46;99129.50;10368266;28;98866;-80
2023/08/02 20:03:55;;;;;;;3.40;1.92;;;22.80;73.80;;;21.64;57.87;99120.81;10374297;28;96764;-81
2023/08/02 20:08:59;;;;;;;2.92;1.88;;;22.60;74.20;;;21.54;58.60;99120.81;10388777;28;96687;-81
2023/08/02 20:14:04;;;;;;;2.88;1.60;;;22.50;74.70;;;21.41;59.71;99126.72;10392924;28;96899;-80
2023/08/02 20:19:14;;;;;;;3.40;2.15;;;22.50;75.60;;;21.30;59.79;99125.84;10370586;28;97398;-79
2023/08/02 20:24:19;;;;;;;3.58;1.50;;;22.30;75.90;;;21.18;60.94;99138.72;10391132;28;98212;-81
2023/08/02 20:29:24;;;;;;;2.28;1.52;;;22.20;77.10;;;21.06;62.33;99136.25;10389268;28;96691;-80
2023/08/02 20:34:29;;;;;;;3.65;2.15;;;22.10;77.70;;;20.98;63.83;99134.03;10349495;28;98156;-79
2023/08/02 20:39:33;;;;;;;3.83;2.30;;;22.00;78.50;;;20.87;65.05;99131.53;10384460;28;96628;-79
2023/08/02 20:44:36;;;;;;;3.22;1.60;;;21.90;79.50;;;20.73;65.76;99115.78;10406981;27;98050;-80
2023/08/02 20:49:40;;;;;;;3.65;2.15;;;21.80;80.00;;;20.58;66.21;99121.91;10415088;27;96779;-80
2023/08/02 20:54:43;;;;;;;4.22;1.92;;;21.70;81.00;;;20.47;67.19;99124.78;10415414;27;97437;-80
2023/08/02 20:59:48;;;;;;;5.15;1.65;;;21.50;81.70;;;20.36;67.51;99123.88;10406306;27;96734;-80
2023/08/02 21:04:51;;;;;;;4.05;2.47;;;21.40;82.40;;;20.24;68.84;99115.13;10410384;27;97717;-80
2023/08/02 21:09:56;;;;;;;4.28;2.28;;;21.30;83.30;;;20.10;69.64;99122.03;10404860;27;96636;-80
2023/08/02 21:15:00;;;;;;;4.10;2.38;;;21.20;84.20;;;19.98;71.84;99120.31;10431369;27;97003;-81
2023/08/02 21:20:45;;;;;;;3.08;1.98;;;21.00;85.10;;;19.90;71.88;99117.25;10413273;27;97162;-81
2023/08/02 21:25:52;;;;;;;3.72;2.00;;;20.90;85.50;;;19.82;72.28;99115.81;10418695;27;96718;-82
2023/08/02 21:31:00;;;;;;;3.08;1.98;;;20.90;86.20;;;19.76;71.98;99106.88;10408203;27;97348;-82
2023/08/02 21:36:04;;;;;;;2.65;1.90;;;20.80;86.60;;;19.70;72.67;99097.09;10419204;27;96660;-82